Kabetogama, Minnesota
Current Conditions -  °F | °C
As of 4:20 PM on Wednesday 28 Jan 2015 (Local Time) from KINL Reporting Station
Haze Haze  
Wind Chill: 27°   Ceiling: 400
Heat Index: 27°   Visibility: 1mi
Dew Point: 25°   Wind: 3mph
Humidity: 92%   Direction: NA
Pressure: 29.8"   Gusts: NA
Location:  48.5197°N, 92.902°W
Report Text: KINL 282220Z AUTO VRB03KT 1SM BR OVC004 M03/M04 A2980 RMK AO2 I1000 T10281039
Loading
Personal Weather Stations






























Interactive Weather Map New forecast layout! Learn more

10-Day Weather Forecast

Advertisements
Track Severe Weather on mobile